This is the latest recevied weather packets stored in our database for station/object N9WHM. If no packets are shown the sender has not sent any weather packets the latest 10 day(s).
| Time | Temp. | Humidity | Pressure | Rain* | Wind** | Luminosity | Snow |
|---|---|---|---|---|---|---|---|
| 1777642838 | 6.67° C | 76% | 1018.8 hPa | 0 mm | - | 196 W/m² | - |
| 1777642536 | 6.67° C | 76% | 1018.6 hPa | 0 mm | - | 188 W/m² | - |
| 1777642232 | 6.11° C | 76% | 1018.7 hPa | 0 mm | - | 175 W/m² | - |
| 1777641924 | 6.11° C | 77% | 1018.6 hPa | 0 mm | - | 164 W/m² | - |
| 1777641620 | 6.11° C | 77% | 1018.7 hPa | 0 mm | - | 151 W/m² | - |
| 1777641315 | 5.56° C | 78% | 1018.4 hPa | 0 mm | - | 142 W/m² | - |
| 1777641010 | 5.56° C | 79% | 1018.5 hPa | 0 mm | - | 130 W/m² | - |
| 1777639495 | 4.44° C | 80% | 1018.3 hPa | 0 mm | - | 42 W/m² | - |
| 1777638887 | 3.89° C | 80% | 1018.6 hPa | 0 mm | - | 69 W/m² | - |
| 1777638279 | 3.33° C | 79% | 1018.3 hPa | 0 mm | - | 55 W/m² | - |
| 1777637975 | 2.78° C | 78% | 1018.4 hPa | 0 mm | - | 49 W/m² | - |
| 1777637672 | 2.78° C | 78% | 1018 hPa | 0 mm | - | 44 W/m² | - |
| 1777637369 | 2.78° C | 77% | 1017.9 hPa | 0 mm | - | 27 W/m² | - |
| 1777637066 | 2.78° C | 77% | 1018 hPa | 0 mm | - | 24 W/m² | - |
| 1777636761 | 2.78° C | 77% | 1018 hPa | 0 mm | - | 26 W/m² | - |
| 1777636458 | 2.22° C | 77% | 1018 hPa | 0 mm | - | 21 W/m² | - |
| 1777636154 | 2.22° C | 76% | 1017.9 hPa | 0 mm | - | 17 W/m² | - |
| 1777635546 | 2.22° C | 76% | 1018.1 hPa | 0 mm | - | 11 W/m² | - |
| 1777635242 | 2.22° C | 76% | 1017.7 hPa | 0 mm | - | 8 W/m² | - |
| 1777634939 | 2.22° C | 76% | 1017.7 hPa | 0 mm | - | 5 W/m² | - |
| 1777634635 | 2.22° C | 75% | 1017.7 hPa | 0 mm | - | 4 W/m² | - |
| 1777634333 | 2.78° C | 74% | 1017.6 hPa | 0 mm | - | 2 W/m² | - |
| 1777634029 | 2.78° C | 73% | 1017.5 hPa | 0 mm | - | 1 W/m² | - |
| 1777633726 | 2.78° C | 74% | 1017.5 hPa | 0 mm | - | 0 W/m² | - |
| 1777633424 | 2.78° C | 74% | 1017.6 hPa | 0 mm | - | 0 W/m² | - |
* Rain latest hour (hover to see other rain measurements)
** Current wind speed in m/s (hover to see current wind gust speed)